createdAt,value
2023-03-27T14:25:36.351Z,100630.81
2023-03-27T14:28:04.969Z,100623.63
2023-03-27T14:30:50.207Z,100629.66
2023-03-27T14:33:20.599Z,100627.28
2023-03-27T14:35:56.795Z,100653.88
2023-03-27T14:38:29.037Z,100644.13
2023-03-27T14:40:58.134Z,100638.97
2023-03-27T14:43:27.543Z,100640.28
2023-03-27T14:46:01.647Z,100636.44
2023-03-27T14:48:37.188Z,100637.00
2023-03-27T14:51:14.235Z,100632.72
2023-03-27T14:53:46.167Z,100631.72
2023-03-27T14:56:22.393Z,100645.41
2023-03-27T14:58:51.405Z,100635.88
2023-03-27T15:01:18.703Z,100642.78
2023-03-27T15:03:46.446Z,100639.81
2023-03-27T15:06:17.261Z,100648.19
2023-03-27T15:08:49.917Z,100647.81
2023-03-27T15:11:20.522Z,100645.00
2023-03-27T15:13:48.353Z,100643.94
2023-03-27T15:16:26.103Z,100644.34
2023-03-27T15:19:09.691Z,100640.38
2023-03-27T15:21:53.118Z,100630.47
2023-03-27T15:24:49.224Z,100637.91
2023-03-27T15:27:40.617Z,100635.44
2023-03-27T15:30:31.954Z,100637.19
2023-03-27T15:33:02.260Z,100632.41
2023-03-27T15:35:41.777Z,100633.72
2023-03-27T15:38:13.977Z,100646.13
2023-03-27T15:40:45.324Z,100631.88
2023-03-27T15:43:12.832Z,100630.66
2023-03-27T15:46:14.569Z,100634.28
2023-03-27T15:48:49.461Z,100639.41
2023-03-27T15:51:19.666Z,100638.03
2023-03-27T15:53:56.148Z,100640.31
2023-03-27T15:56:38.596Z,100647.56
2023-03-27T15:59:07.762Z,100650.00
2023-03-27T16:01:35.929Z,100646.13
2023-03-27T16:04:16.998Z,100648.53
2023-03-27T16:06:51.203Z,100645.06
2023-03-27T16:09:21.276Z,100647.25
2023-03-27T16:11:49.519Z,100643.06
2023-03-27T16:14:30.443Z,100647.66
2023-03-27T16:17:14.728Z,100657.78
2023-03-27T16:19:52.036Z,100665.94
2023-03-27T16:22:32.374Z,100710.47
2023-03-27T16:25:01.352Z,100684.34
2023-03-27T16:27:36.364Z,100686.44
2023-03-27T16:30:18.932Z,100693.97
2023-03-27T16:32:46.414Z,100695.84
2023-03-27T16:35:13.605Z,100690.22
2023-03-27T16:37:41.202Z,100692.44
2023-03-27T16:40:08.941Z,100691.44
2023-03-27T16:42:36.145Z,100689.34
2023-03-27T16:45:05.368Z,100690.69
2023-03-27T16:47:32.677Z,100686.53
2023-03-27T16:50:10.986Z,100691.94
2023-03-27T16:52:38.981Z,100697.97
2023-03-27T16:55:07.697Z,100700.09
2023-03-27T16:57:36.307Z,100712.19
2023-03-27T17:00:05.401Z,100708.97
2023-03-27T17:02:34.786Z,100708.19
2023-03-27T17:05:04.213Z,100713.28
2023-03-27T17:07:32.651Z,100716.16
2023-03-27T17:09:59.838Z,100719.88
2023-03-27T17:12:28.974Z,100731.66
2023-03-27T17:14:58.619Z,100724.53
2023-03-27T17:17:27.486Z,100740.81
2023-03-27T17:19:55.298Z,100734.91
2023-03-27T17:22:22.481Z,100748.50
2023-03-27T17:24:57.254Z,100755.13
2023-03-27T17:27:28.332Z,100758.00
2023-03-27T17:29:56.091Z,100759.78
2023-03-27T17:32:25.379Z,100767.88
2023-03-27T17:34:52.794Z,100775.81
2023-03-27T17:37:21.079Z,100776.38
2023-03-27T17:39:48.836Z,100778.31
2023-03-27T17:42:16.044Z,100781.03
2023-03-27T17:44:45.048Z,100777.38
2023-03-27T17:47:13.027Z,100784.13
2023-03-27T17:49:40.970Z,100781.59
2023-03-27T17:52:11.286Z,100779.31
2023-03-27T17:54:38.947Z,100779.19
2023-03-27T17:57:06.526Z,100780.22
2023-03-27T17:59:33.791Z,100785.56
2023-03-27T18:02:01.226Z,100794.97
2023-03-27T18:04:29.391Z,100785.91
2023-03-27T18:06:57.083Z,100787.69
2023-03-27T18:09:24.968Z,100790.53
2023-03-27T18:11:52.253Z,100780.94
2023-03-27T18:14:19.720Z,100778.44
2023-03-27T18:16:46.946Z,100789.53
2023-03-27T18:19:20.351Z,100781.09
2023-03-27T18:21:51.899Z,100775.88
2023-03-27T18:24:21.458Z,100781.03
2023-03-27T18:26:49.723Z,100778.47
2023-03-27T18:29:26.141Z,100775.81
2023-03-27T18:31:56.031Z,100769.91
2023-03-27T18:34:23.302Z,100782.19
2023-03-27T18:36:51.721Z,100797.56
2023-03-27T18:39:19.773Z,100785.13
2023-03-27T18:41:47.036Z,100803.66
2023-03-27T18:44:14.282Z,100805.28
2023-03-27T18:46:41.417Z,100805.72
2023-03-27T18:49:21.553Z,100805.03
2023-03-27T18:51:51.431Z,100809.63
2023-03-27T18:54:18.552Z,100815.88
2023-03-27T18:56:46.037Z,100807.53
2023-03-27T18:59:14.336Z,100796.69
2023-03-27T19:01:41.713Z,100789.06
2023-03-27T19:04:09.708Z,100795.91
2023-03-27T19:06:37.031Z,100788.16
2023-03-27T19:09:05.710Z,100793.47
2023-03-27T19:11:33.068Z,100791.00
2023-03-27T19:14:00.344Z,100781.66
2023-03-27T19:16:27.607Z,100786.81
2023-03-27T19:18:54.819Z,100776.50
2023-03-27T19:21:22.058Z,100768.63
2023-03-27T19:23:49.326Z,100775.72
2023-03-27T19:26:17.404Z,100787.75
2023-03-27T19:28:47.414Z,100790.59
2023-03-27T19:35:20.729Z,100780.44
2023-03-27T19:37:47.984Z,100790.00
2023-03-27T19:40:15.444Z,100782.09
2023-03-27T19:42:42.945Z,100784.59
2023-03-27T19:45:10.398Z,100780.44
2023-03-27T19:47:37.711Z,100779.66
2023-03-27T19:50:07.080Z,100779.81
2023-03-27T19:52:34.871Z,100776.47
2023-03-27T19:55:02.150Z,100773.13
2023-03-27T19:57:29.592Z,100771.47
2023-03-27T19:59:56.812Z,100780.69
2023-03-27T20:02:24.055Z,100776.41
2023-03-27T20:04:54.381Z,100769.63
2023-03-27T20:07:21.655Z,100771.31
2023-03-27T20:09:48.914Z,100767.88
2023-03-27T20:12:18.230Z,100772.88
2023-03-27T20:14:53.920Z,100776.28
2023-03-27T20:17:29.423Z,100764.31
2023-03-27T20:19:56.864Z,100770.22
2023-03-27T20:22:24.178Z,100775.25
2023-03-27T20:24:51.339Z,100772.69
2023-03-27T20:27:21.501Z,100769.44
2023-03-27T20:29:49.181Z,100762.69
2023-03-27T20:32:16.587Z,100763.63
2023-03-27T20:34:46.202Z,100754.94
2023-03-27T20:37:13.543Z,100773.97
2023-03-27T20:39:44.639Z,100759.28
2023-03-27T20:42:15.745Z,100766.19
2023-03-27T20:44:45.109Z,100755.94
2023-03-27T20:47:13.280Z,100761.94
2023-03-27T20:49:44.533Z,100759.28
2023-03-27T20:52:14.626Z,100763.78
2023-03-27T20:54:42.128Z,100758.00
2023-03-27T20:57:09.466Z,100749.38
2023-03-27T20:59:36.789Z,100756.25
2023-03-27T21:02:05.061Z,100757.97
2023-03-27T21:04:32.340Z,100737.94
2023-03-27T21:06:59.598Z,100745.66
2023-03-27T21:09:27.408Z,100749.06
2023-03-27T21:11:55.591Z,100752.63
2023-03-27T21:14:23.048Z,100741.47
2023-03-27T21:16:50.503Z,100741.47
2023-03-27T21:19:18.020Z,100718.16
2023-03-27T21:21:45.450Z,100741.72
2023-03-27T21:24:13.383Z,100725.59
2023-03-27T21:26:41.474Z,100732.44
2023-03-27T21:29:11.801Z,100740.13
2023-03-27T21:31:39.508Z,100740.97
2023-03-27T21:34:06.793Z,100733.41
2023-03-27T21:36:34.086Z,100745.38
2023-03-27T21:39:01.366Z,100733.16
2023-03-27T21:41:28.913Z,100741.03
2023-03-27T21:43:56.305Z,100745.50
2023-03-27T21:46:23.656Z,100750.91
2023-03-27T21:48:51.504Z,100735.47
2023-03-27T21:51:19.096Z,100743.34
2023-03-27T21:53:46.480Z,100735.66
2023-03-27T21:56:13.776Z,100741.66
2023-03-27T21:58:41.005Z,100737.41
2023-03-27T22:01:08.376Z,100740.09
2023-03-27T22:03:35.526Z,100752.03
2023-03-27T22:06:11.734Z,100765.09
2023-03-27T22:08:41.291Z,100757.31
2023-03-27T22:11:09.281Z,100762.41
2023-03-27T22:13:36.965Z,100753.72
2023-03-27T22:16:12.086Z,100748.53
2023-03-27T22:18:39.700Z,100755.44
2023-03-27T22:21:32.312Z,100758.78
2023-03-27T22:23:59.763Z,100760.50
2023-03-27T22:26:29.999Z,100789.81
2023-03-27T22:28:57.326Z,100774.44
2023-03-27T22:31:25.568Z,100785.63
2023-03-27T22:33:53.040Z,100787.28
2023-03-27T22:36:21.075Z,100795.09
2023-03-27T22:38:48.391Z,100777.75
2023-03-27T22:41:16.078Z,100776.16
2023-03-27T22:43:43.232Z,100787.28
2023-03-27T22:46:15.697Z,100785.50
2023-03-27T22:48:43.136Z,100786.44
2023-03-27T22:51:11.837Z,100798.56
2023-03-27T22:53:39.681Z,100793.41
2023-03-27T22:56:07.542Z,100790.69
2023-03-27T22:58:34.764Z,100780.41
2023-03-27T23:01:04.534Z,100788.94
2023-03-27T23:03:32.153Z,100787.28
2023-03-27T23:05:59.598Z,100784.63
2023-03-27T23:08:27.832Z,100788.13
2023-03-27T23:10:59.076Z,100783.59
2023-03-27T23:13:27.981Z,100784.28
2023-03-27T23:15:55.725Z,100792.09
2023-03-27T23:18:25.660Z,100789.63
2023-03-27T23:20:54.741Z,100791.50
2023-03-27T23:23:22.092Z,100803.53
2023-03-27T23:25:49.489Z,100798.38
2023-03-27T23:28:16.690Z,100802.66
2023-03-27T23:30:52.149Z,100800.97
2023-03-27T23:33:19.323Z,100806.16
2023-03-27T23:35:46.953Z,100796.78
2023-03-27T23:38:14.255Z,100809.63
2023-03-27T23:40:41.378Z,100815.81
2023-03-27T23:43:08.682Z,100807.81
2023-03-27T23:45:35.984Z,100827.78
2023-03-27T23:48:03.704Z,100842.50
2023-03-27T23:50:30.945Z,100852.88
2023-03-27T23:52:58.103Z,100875.00
2023-03-27T23:55:25.351Z,100870.28
2023-03-27T23:57:52.661Z,100881.03
